createdAt,value
2022-10-11T00:00:44.137Z,86.42
2022-10-11T00:03:11.082Z,86.52
2022-10-11T00:05:37.803Z,86.18
2022-10-11T00:08:05.915Z,86.15
2022-10-11T00:10:34.209Z,86.15
2022-10-11T00:13:01.396Z,86.24
2022-10-11T00:15:28.232Z,86.48
2022-10-11T00:17:54.899Z,86.34
2022-10-11T00:20:21.625Z,86.58
2022-10-11T00:22:50.773Z,86.37
2022-10-11T00:25:20.518Z,86.46
2022-10-11T00:27:49.266Z,86.48
2022-10-11T00:30:15.939Z,86.48
2022-10-11T00:32:44.788Z,86.77
2022-10-11T00:35:13.891Z,86.54
2022-10-11T00:37:40.554Z,86.51
2022-10-11T00:40:10.240Z,86.32
2022-10-11T00:42:37.108Z,86.66
2022-10-11T00:45:31.646Z,86.71
2022-10-11T00:48:17.625Z,86.67
2022-10-11T00:50:53.686Z,86.42
2022-10-11T00:53:25.556Z,86.76
2022-10-11T00:55:59.839Z,86.65
2022-10-11T00:58:26.882Z,86.24
2022-10-11T01:00:54.399Z,86.58
2022-10-11T01:03:25.278Z,86.49
2022-10-11T01:05:55.748Z,86.49
2022-10-11T01:08:23.372Z,86.83
2022-10-11T01:10:52.255Z,86.95
2022-10-11T01:13:40.761Z,87.13
2022-10-11T01:16:32.211Z,87.10
2022-10-11T01:19:10.733Z,86.82
2022-10-11T01:21:55.648Z,86.97
2022-10-11T01:24:44.186Z,86.91
2022-10-11T01:27:29.447Z,86.83
2022-10-11T01:30:33.490Z,87.04
2022-10-11T01:33:07.502Z,87.02
2022-10-11T01:36:01.952Z,87.11
2022-10-11T01:38:52.740Z,87.06
2022-10-11T01:41:28.973Z,87.05
2022-10-11T01:44:01.519Z,87.18
2022-10-11T01:46:31.782Z,87.22
2022-10-11T01:49:00.219Z,87.18
2022-10-11T01:51:34.604Z,86.96
2022-10-11T01:54:10.904Z,87.11
2022-10-11T01:56:59.358Z,87.19
2022-10-11T01:59:52.093Z,87.63
2022-10-11T02:02:39.186Z,87.41
2022-10-11T02:05:11.421Z,87.52
2022-10-11T02:08:08.520Z,87.54
2022-10-11T02:10:44.734Z,87.39
2022-10-11T02:13:26.552Z,87.66
2022-10-11T02:15:55.979Z,87.44
2022-10-11T02:18:27.648Z,87.19
2022-10-11T02:21:00.996Z,86.81
2022-10-11T02:23:36.622Z,86.93
2022-10-11T02:26:06.880Z,86.94
2022-10-11T02:28:37.290Z,86.96
2022-10-11T02:31:06.764Z,87.05
2022-10-11T02:33:53.555Z,87.37
2022-10-11T02:36:26.672Z,86.83
2022-10-11T02:38:59.162Z,86.50
2022-10-11T02:41:32.938Z,86.65
2022-10-11T02:44:06.717Z,86.68
2022-10-11T02:46:37.042Z,86.82
2022-10-11T02:49:05.028Z,87.01
2022-10-11T02:51:32.546Z,86.85
2022-10-11T02:54:02.124Z,86.95
2022-10-11T02:56:28.841Z,87.42
2022-10-11T02:58:55.453Z,87.23
2022-10-11T03:01:22.256Z,87.66
2022-10-11T03:03:48.972Z,88.06
2022-10-11T03:06:15.812Z,88.29
2022-10-11T03:08:47.779Z,88.53
2022-10-11T03:11:16.951Z,88.88
2022-10-11T03:13:44.206Z,88.67
2022-10-11T03:16:14.698Z,88.71
2022-10-11T03:18:41.581Z,88.50
2022-10-11T03:21:08.249Z,88.26
2022-10-11T03:23:34.953Z,88.37
2022-10-11T03:26:02.096Z,88.17
2022-10-11T03:28:31.990Z,88.11
2022-10-11T03:31:00.370Z,87.90
2022-10-11T03:33:29.246Z,88.00
2022-10-11T03:35:58.911Z,87.94
2022-10-11T03:38:25.639Z,87.57
2022-10-11T03:40:52.262Z,87.67
2022-10-11T03:43:18.859Z,87.53
2022-10-11T03:45:46.624Z,87.51
2022-10-11T03:48:14.243Z,87.60
2022-10-11T03:50:40.913Z,87.81
2022-10-11T03:53:08.019Z,87.74
2022-10-11T03:55:37.521Z,87.62
2022-10-11T03:58:07.085Z,87.79
2022-10-11T04:00:34.811Z,87.60
2022-10-11T04:03:03.900Z,87.43
2022-10-11T04:05:30.883Z,87.19
2022-10-11T04:07:57.721Z,87.26
2022-10-11T04:10:24.581Z,87.64
2022-10-11T04:12:51.160Z,87.26
2022-10-11T04:15:18.018Z,87.79
2022-10-11T04:17:46.284Z,87.64
2022-10-11T04:20:15.937Z,87.57
2022-10-11T04:22:42.579Z,87.62
2022-10-11T04:25:09.804Z,87.77
2022-10-11T04:27:36.467Z,87.82
2022-10-11T04:30:04.955Z,87.93
2022-10-11T04:32:31.608Z,87.43
2022-10-11T04:34:58.360Z,87.41
2022-10-11T04:37:25.135Z,87.47
2022-10-11T04:39:51.783Z,87.38
2022-10-11T04:42:21.074Z,86.91
2022-10-11T04:44:47.801Z,86.95
2022-10-11T04:47:14.492Z,86.52
2022-10-11T04:49:42.911Z,86.19
2022-10-11T04:52:09.738Z,85.99
2022-10-11T04:54:36.697Z,86.22
2022-10-11T04:57:06.455Z,86.12
2022-10-11T04:59:37.449Z,86.08
2022-10-11T05:02:04.149Z,86.00
2022-10-11T05:04:30.876Z,86.53
2022-10-11T05:06:57.479Z,86.50
2022-10-11T05:09:24.263Z,86.72
2022-10-11T05:11:50.897Z,86.62
2022-10-11T05:14:17.521Z,86.72
2022-10-11T05:16:47.010Z,86.18
2022-10-11T05:19:17.610Z,86.36
2022-10-11T05:21:47.008Z,86.74
2022-10-11T05:24:18.209Z,87.08
2022-10-11T05:26:45.102Z,87.00
2022-10-11T05:29:11.723Z,86.97
2022-10-11T05:31:43.013Z,86.53
2022-10-11T05:34:09.768Z,86.68
2022-10-11T05:36:36.512Z,86.72
2022-10-11T05:39:03.209Z,86.62
2022-10-11T05:41:29.909Z,86.80
2022-10-11T05:43:56.516Z,86.64
2022-10-11T05:46:23.204Z,86.68
2022-10-11T05:48:49.806Z,86.60
2022-10-11T05:51:18.753Z,86.60
2022-10-11T05:53:45.646Z,86.17
2022-10-11T05:56:24.872Z,86.22
2022-10-11T05:58:52.594Z,85.82
2022-10-11T06:01:27.240Z,86.21
2022-10-11T06:03:57.206Z,85.92
2022-10-11T06:06:24.147Z,86.03
2022-10-11T06:08:50.929Z,85.75
2022-10-11T06:11:25.319Z,85.90
2022-10-11T06:13:56.137Z,86.25
2022-10-11T06:16:22.815Z,86.14
2022-10-11T06:18:52.760Z,86.58
2022-10-11T06:21:19.532Z,86.12
2022-10-11T06:23:50.233Z,85.87
2022-10-11T06:26:18.031Z,85.34
2022-10-11T06:28:45.451Z,85.20
2022-10-11T06:31:13.008Z,85.21
2022-10-11T06:33:47.368Z,85.31
2022-10-11T06:36:14.836Z,85.63
2022-10-11T06:38:44.959Z,85.43
2022-10-11T06:41:22.089Z,85.38
2022-10-11T06:43:51.803Z,85.11
2022-10-11T06:46:20.475Z,85.48
2022-10-11T06:48:48.377Z,85.17
2022-10-11T06:51:17.223Z,85.16
2022-10-11T06:53:44.423Z,84.59
2022-10-11T06:56:13.134Z,84.38
2022-10-11T06:58:40.151Z,83.98
2022-10-11T07:01:10.338Z,83.50
2022-10-11T07:03:37.550Z,83.35
2022-10-11T07:06:10.014Z,82.88
2022-10-11T07:08:40.571Z,82.74
2022-10-11T07:11:09.794Z,82.78
2022-10-11T07:13:37.713Z,83.06
2022-10-11T07:16:07.087Z,82.94
2022-10-11T07:18:34.072Z,82.75
2022-10-11T07:21:08.656Z,82.41
2022-10-11T07:23:35.551Z,82.29
2022-10-11T07:26:02.869Z,82.18
2022-10-11T07:28:30.776Z,82.29
2022-10-11T07:30:58.672Z,82.63
2022-10-11T07:33:25.398Z,82.13
2022-10-11T07:35:56.672Z,81.98
2022-10-11T07:38:23.327Z,81.53
2022-10-11T07:40:49.994Z,81.58
2022-10-11T07:43:16.606Z,81.57
2022-10-11T07:45:45.626Z,81.43
2022-10-11T07:48:13.478Z,81.24
2022-10-11T07:50:40.096Z,81.52
2022-10-11T07:53:06.795Z,80.92
2022-10-11T07:55:40.338Z,80.55
2022-10-11T07:58:11.156Z,80.24
2022-10-11T08:00:38.888Z,80.17
2022-10-11T08:03:06.494Z,80.04
2022-10-11T08:05:34.482Z,79.75
2022-10-11T08:08:01.117Z,79.01
2022-10-11T08:10:27.851Z,78.79
2022-10-11T08:12:54.545Z,78.86
2022-10-11T08:15:21.430Z,78.90
2022-10-11T08:17:48.139Z,78.78
2022-10-11T08:20:14.854Z,78.77
2022-10-11T08:22:41.535Z,78.26
2022-10-11T08:25:08.502Z,77.77
2022-10-11T08:27:35.132Z,77.55
2022-10-11T08:30:01.830Z,77.35
2022-10-11T08:32:29.654Z,76.46
2022-10-11T08:34:56.463Z,76.57
2022-10-11T08:37:23.075Z,76.13
2022-10-11T08:39:53.016Z,75.97
2022-10-11T08:42:41.021Z,75.33
2022-10-11T08:45:27.145Z,74.28
2022-10-11T08:48:04.041Z,74.77
2022-10-11T08:50:31.635Z,74.41
2022-10-11T08:53:09.009Z,74.51
2022-10-11T08:55:44.164Z,74.59
2022-10-11T08:58:19.415Z,74.21
2022-10-11T09:00:48.610Z,73.24
2022-10-11T09:03:34.554Z,73.76
2022-10-11T09:06:06.349Z,73.43
2022-10-11T09:08:39.329Z,73.59
2022-10-11T09:11:30.764Z,73.00
2022-10-11T09:14:12.551Z,72.86
2022-10-11T09:17:10.481Z,73.12
2022-10-11T09:19:46.167Z,73.14
2022-10-11T09:22:46.843Z,72.80
2022-10-11T09:25:37.843Z,73.62
2022-10-11T09:28:46.498Z,72.94
2022-10-11T09:31:14.542Z,72.38
2022-10-11T09:33:47.566Z,72.01
2022-10-11T09:36:20.304Z,71.90
2022-10-11T09:38:54.688Z,72.05
2022-10-11T09:41:36.907Z,71.99
2022-10-11T09:44:06.901Z,71.67
2022-10-11T09:46:57.007Z,71.62
2022-10-11T09:49:34.330Z,70.92
2022-10-11T09:52:03.171Z,70.27
2022-10-11T09:54:48.290Z,69.26
2022-10-11T09:57:25.624Z,68.83
2022-10-11T10:00:06.279Z,68.09
2022-10-11T10:02:52.012Z,68.49
2022-10-11T10:05:24.372Z,68.70
2022-10-11T10:08:06.295Z,68.54
2022-10-11T10:10:50.655Z,67.04
2022-10-11T10:13:32.740Z,66.61
2022-10-11T10:16:07.132Z,65.24
2022-10-11T10:18:48.165Z,64.00
2022-10-11T10:21:15.689Z,64.55
2022-10-11T10:23:42.447Z,63.77
2022-10-11T10:26:22.665Z,62.65
2022-10-11T10:29:14.387Z,62.64
2022-10-11T10:34:42.496Z,61.13
2022-10-11T10:37:38.835Z,60.23
2022-10-11T10:40:18.472Z,59.60
2022-10-11T10:42:45.418Z,59.33
2022-10-11T10:45:20.926Z,59.70
2022-10-11T10:48:07.318Z,59.25
2022-10-11T10:50:49.669Z,59.23
2022-10-11T10:53:24.918Z,59.75
2022-10-11T10:55:54.887Z,59.73
2022-10-11T10:58:24.587Z,59.84
2022-10-11T11:00:53.691Z,59.29
2022-10-11T11:03:20.854Z,59.75
2022-10-11T11:05:57.651Z,59.58
2022-10-11T11:08:27.454Z,59.91
2022-10-11T11:11:02.314Z,60.16
2022-10-11T11:13:29.108Z,59.58
2022-10-11T11:15:58.698Z,59.21
2022-10-11T11:18:29.661Z,58.99
2022-10-11T11:20:59.266Z,59.14
2022-10-11T11:23:27.282Z,58.75
2022-10-11T11:26:12.623Z,58.93
2022-10-11T11:28:48.523Z,58.93
2022-10-11T11:31:21.540Z,58.60
2022-10-11T11:34:03.541Z,58.94
2022-10-11T11:36:42.373Z,58.42
2022-10-11T11:39:14.776Z,57.95
2022-10-11T11:41:45.173Z,57.60
2022-10-11T11:44:23.792Z,58.16
2022-10-11T11:46:57.195Z,58.49
2022-10-11T11:49:32.212Z,58.56
2022-10-11T11:51:59.645Z,58.89
2022-10-11T11:54:47.941Z,57.72
2022-10-11T11:57:25.393Z,57.76
2022-10-11T11:59:52.184Z,57.90
2022-10-11T12:02:25.012Z,57.89
2022-10-11T12:04:52.376Z,57.92
2022-10-11T12:07:20.862Z,57.82
2022-10-11T12:09:55.406Z,57.08
2022-10-11T12:12:38.645Z,56.43
2022-10-11T12:15:08.317Z,56.54
2022-10-11T12:17:57.025Z,56.32
2022-10-11T12:20:23.596Z,56.53
2022-10-11T12:22:53.902Z,56.96
2022-10-11T12:25:22.338Z,56.52
2022-10-11T12:27:53.175Z,56.50
2022-10-11T12:30:38.945Z,56.27
2022-10-11T12:33:13.407Z,56.85
2022-10-11T12:35:47.715Z,56.58
2022-10-11T12:38:21.071Z,56.78
2022-10-11T12:40:48.920Z,56.41
2022-10-11T12:43:15.896Z,56.03
2022-10-11T12:46:08.176Z,56.08
2022-10-11T12:48:41.075Z,55.31
2022-10-11T12:51:28.572Z,55.60
2022-10-11T12:54:25.422Z,55.64
2022-10-11T12:57:11.040Z,55.48
2022-10-11T12:59:42.753Z,55.66
2022-10-11T13:02:45.160Z,55.56
2022-10-11T13:05:23.501Z,55.25
2022-10-11T13:07:56.307Z,55.39
2022-10-11T13:10:30.536Z,55.38
2022-10-11T13:13:00.587Z,55.58
2022-10-11T13:15:29.974Z,55.56
2022-10-11T13:20:42.556Z,57.20
2022-10-11T13:23:26.634Z,56.60
2022-10-11T13:25:56.893Z,56.71
2022-10-11T13:28:23.939Z,57.17
2022-10-11T13:30:53.361Z,56.94
2022-10-11T13:33:25.062Z,57.11
2022-10-11T13:35:52.826Z,57.32
2022-10-11T13:38:24.209Z,57.14
2022-10-11T13:40:51.381Z,55.90
2022-10-11T13:43:26.609Z,55.39
2022-10-11T13:45:57.261Z,54.71
2022-10-11T13:48:28.138Z,54.46
2022-10-11T13:51:06.685Z,53.99
2022-10-11T13:53:33.331Z,53.54
2022-10-11T13:56:00.917Z,53.46
2022-10-11T13:58:30.058Z,53.22
2022-10-11T14:00:58.374Z,53.03
2022-10-11T14:03:36.144Z,52.84
2022-10-11T14:06:03.231Z,53.24
2022-10-11T14:08:30.023Z,55.04
2022-10-11T14:10:59.387Z,55.89
2022-10-11T14:13:41.434Z,56.52
2022-10-11T14:16:08.670Z,56.81
2022-10-11T14:18:46.359Z,57.67
2022-10-11T14:21:33.864Z,58.76
2022-10-11T14:24:02.251Z,60.54
2022-10-11T14:26:31.955Z,61.64
2022-10-11T14:29:00.028Z,62.39
2022-10-11T14:31:27.034Z,63.31
2022-10-11T14:33:53.848Z,64.14
2022-10-11T14:36:22.737Z,64.28
2022-10-11T14:38:50.404Z,64.61
2022-10-11T14:41:17.170Z,65.28
2022-10-11T14:43:43.821Z,65.48
2022-10-11T14:46:21.853Z,66.46
2022-10-11T14:48:56.694Z,66.45
2022-10-11T14:51:25.317Z,67.20
2022-10-11T14:53:52.215Z,67.48
2022-10-11T14:56:21.457Z,67.40
2022-10-11T14:58:48.489Z,67.53
2022-10-11T15:01:15.635Z,67.49
2022-10-11T15:03:42.731Z,67.62
2022-10-11T15:06:19.615Z,68.20
2022-10-11T15:08:46.390Z,68.62
2022-10-11T15:11:20.309Z,68.74
2022-10-11T15:13:49.224Z,69.40
2022-10-11T15:16:17.023Z,70.33
2022-10-11T15:18:44.669Z,70.41
2022-10-11T15:21:14.687Z,70.95
2022-10-11T15:23:41.642Z,71.20
2022-10-11T15:26:20.135Z,71.00
2022-10-11T15:28:46.995Z,71.32
2022-10-11T15:31:13.706Z,71.90
2022-10-11T15:33:40.429Z,72.12
2022-10-11T15:36:11.899Z,72.45
2022-10-11T15:38:38.498Z,72.71
2022-10-11T15:41:05.131Z,73.07
2022-10-11T15:43:31.605Z,72.93
2022-10-11T15:45:58.295Z,73.06
2022-10-11T15:48:26.556Z,73.67
2022-10-11T15:50:53.781Z,73.77
2022-10-11T15:53:22.113Z,73.49
2022-10-11T15:55:50.214Z,74.03
2022-10-11T15:58:18.471Z,74.15
2022-10-11T16:00:46.449Z,74.56
2022-10-11T16:03:13.866Z,74.35
2022-10-11T16:05:40.733Z,74.25
2022-10-11T16:08:07.807Z,73.99
2022-10-11T16:10:34.629Z,74.24
2022-10-11T16:13:02.036Z,73.95
2022-10-11T16:15:29.100Z,74.10
2022-10-11T16:17:55.590Z,74.42
2022-10-11T16:20:24.591Z,74.97
2022-10-11T16:22:52.424Z,74.92
2022-10-11T16:25:22.809Z,74.70
2022-10-11T16:27:52.614Z,74.60
2022-10-11T16:30:19.878Z,75.00
2022-10-11T16:32:46.471Z,75.53
2022-10-11T16:35:14.038Z,76.06
2022-10-11T16:37:40.552Z,76.59
2022-10-11T16:40:07.561Z,76.49
2022-10-11T16:42:37.021Z,76.49
2022-10-11T16:45:03.864Z,76.59
2022-10-11T16:47:33.065Z,76.60
2022-10-11T16:50:00.679Z,76.89
2022-10-11T16:52:27.207Z,77.15
2022-10-11T16:54:56.618Z,77.31
2022-10-11T16:57:23.302Z,77.49
2022-10-11T16:59:49.972Z,77.52
2022-10-11T17:02:21.332Z,77.59
2022-10-11T17:04:51.762Z,77.46
2022-10-11T17:07:18.973Z,77.48
2022-10-11T17:09:46.265Z,77.52
2022-10-11T17:12:14.730Z,77.84
2022-10-11T17:14:44.894Z,77.96
2022-10-11T17:17:11.600Z,77.78
2022-10-11T17:19:44.840Z,77.92
2022-10-11T17:22:21.469Z,77.75
2022-10-11T17:24:50.901Z,77.87
2022-10-11T17:27:17.438Z,78.01
2022-10-11T17:29:48.366Z,78.17
2022-10-11T17:32:14.868Z,78.45
2022-10-11T17:34:41.354Z,78.68
2022-10-11T17:37:10.283Z,79.09
2022-10-11T17:39:36.908Z,79.34
2022-10-11T17:42:11.047Z,79.19
2022-10-11T17:44:40.899Z,79.03
2022-10-11T17:47:07.566Z,78.88
2022-10-11T17:49:34.107Z,79.02
2022-10-11T17:52:08.604Z,79.22
2022-10-11T17:54:48.759Z,79.21
2022-10-11T17:57:17.827Z,79.33
2022-10-11T17:59:46.861Z,79.46
2022-10-11T18:02:17.194Z,79.64
2022-10-11T18:04:46.243Z,79.73
2022-10-11T18:07:17.834Z,79.77
2022-10-11T18:09:47.456Z,79.98
2022-10-11T18:12:14.259Z,80.12
2022-10-11T18:14:43.952Z,80.06
2022-10-11T18:17:19.721Z,80.19
2022-10-11T18:19:48.606Z,80.29
2022-10-11T18:22:15.728Z,80.46
2022-10-11T18:24:45.463Z,80.90
2022-10-11T18:27:16.957Z,81.00
2022-10-11T18:29:43.903Z,81.25
2022-10-11T18:32:10.476Z,80.98
2022-10-11T18:34:53.376Z,80.76
2022-10-11T18:37:20.115Z,80.86
2022-10-11T18:39:48.185Z,80.76
2022-10-11T18:42:15.156Z,80.99
2022-10-11T18:44:41.731Z,80.82
2022-10-11T18:47:08.355Z,80.80
2022-10-11T18:49:37.259Z,80.94
2022-10-11T18:52:03.859Z,81.18
2022-10-11T18:54:30.852Z,81.40
2022-10-11T18:57:00.895Z,81.53
2022-10-11T18:59:27.559Z,81.44
2022-10-11T19:01:54.221Z,81.62
2022-10-11T19:04:21.261Z,81.62
2022-10-11T19:06:48.864Z,81.51
2022-10-11T19:09:17.949Z,81.62
2022-10-11T19:11:44.640Z,82.35
2022-10-11T19:14:14.739Z,82.53
2022-10-11T19:16:45.541Z,82.29
2022-10-11T19:19:13.069Z,82.13
2022-10-11T19:21:43.987Z,81.94
2022-10-11T19:24:10.700Z,81.94
2022-10-11T19:26:46.057Z,82.04
2022-10-11T19:29:22.034Z,82.38
2022-10-11T19:31:50.217Z,82.22
2022-10-11T19:34:17.393Z,82.47
2022-10-11T19:36:45.199Z,82.62
2022-10-11T19:39:15.520Z,82.84
2022-10-11T19:41:45.922Z,82.82
2022-10-11T19:44:13.325Z,83.04
2022-10-11T19:47:02.687Z,83.30
2022-10-11T19:49:29.576Z,83.50
2022-10-11T19:51:59.283Z,83.72
2022-10-11T19:54:25.793Z,83.31
2022-10-11T19:56:52.619Z,83.09
2022-10-11T19:59:22.741Z,82.96
2022-10-11T20:01:52.686Z,83.49
2022-10-11T20:07:07.108Z,84.13
2022-10-11T20:09:33.718Z,84.01
2022-10-11T20:12:00.258Z,84.08
2022-10-11T20:14:37.025Z,83.97
2022-10-11T20:17:03.744Z,84.24
2022-10-11T20:19:31.270Z,84.20
2022-10-11T20:21:58.548Z,84.12
2022-10-11T20:24:27.616Z,84.36
2022-10-11T20:29:45.371Z,84.17
2022-10-11T20:32:11.929Z,84.19
2022-10-11T20:34:40.945Z,84.20
2022-10-11T20:37:07.472Z,84.29
2022-10-11T20:39:36.412Z,84.43
2022-10-11T20:42:02.903Z,84.94
2022-10-11T20:44:34.085Z,85.04
2022-10-11T20:47:04.048Z,84.69
2022-10-11T20:49:33.195Z,84.98
2022-10-11T20:51:59.804Z,84.70
2022-10-11T20:54:28.890Z,84.84
2022-10-11T20:56:55.630Z,84.72
2022-10-11T20:59:22.501Z,84.90
2022-10-11T21:01:49.027Z,84.97
2022-10-11T21:04:22.716Z,84.79
2022-10-11T21:06:49.415Z,85.15
2022-10-11T21:09:16.929Z,85.30
2022-10-11T21:11:43.833Z,85.78
2022-10-11T21:14:10.484Z,85.98
2022-10-11T21:16:37.134Z,85.93
2022-10-11T21:19:05.989Z,86.29
2022-10-11T21:21:32.680Z,86.38
2022-10-11T21:24:01.383Z,86.48
2022-10-11T21:26:28.965Z,86.49
2022-10-11T21:28:55.717Z,86.38
2022-10-11T21:31:23.699Z,86.46
2022-10-11T21:33:50.695Z,86.31
2022-10-11T21:36:23.288Z,86.68
2022-10-11T21:38:51.202Z,86.53
2022-10-11T21:41:20.734Z,86.94
2022-10-11T21:43:47.582Z,86.81
2022-10-11T21:46:15.945Z,86.81
2022-10-11T21:48:42.556Z,87.21
2022-10-11T21:53:47.437Z,87.29
2022-10-11T21:56:20.134Z,87.26
2022-10-11T21:58:48.019Z,87.04
2022-10-11T22:01:15.337Z,86.95
2022-10-11T22:04:03.010Z,86.91
2022-10-11T22:06:38.130Z,87.15
2022-10-11T22:09:05.595Z,86.89
2022-10-11T22:11:32.330Z,86.59
2022-10-11T22:13:59.040Z,86.88
2022-10-11T22:16:25.643Z,86.76
2022-10-11T22:18:53.814Z,87.21
2022-10-11T22:21:23.025Z,87.05
2022-10-11T22:23:51.735Z,87.24
2022-10-11T22:26:21.646Z,87.35
2022-10-11T22:28:48.805Z,87.34
2022-10-11T22:31:17.858Z,87.58
2022-10-11T22:36:13.210Z,86.79
2022-10-11T22:38:42.104Z,86.78
2022-10-11T22:41:09.477Z,86.60
2022-10-11T22:43:36.208Z,86.65
2022-10-11T22:46:03.211Z,87.15
2022-10-11T22:48:29.923Z,87.44
2022-10-11T22:50:56.625Z,87.59
2022-10-11T22:53:23.286Z,87.66
2022-10-11T22:55:50.190Z,87.88
2022-10-11T22:58:16.923Z,88.18
2022-10-11T23:00:43.802Z,87.83
2022-10-11T23:03:14.615Z,88.15
2022-10-11T23:05:41.541Z,87.87
2022-10-11T23:08:09.641Z,88.18
2022-10-11T23:10:40.150Z,87.91
2022-10-11T23:13:07.187Z,88.20
2022-10-11T23:15:33.833Z,88.15
2022-10-11T23:18:00.487Z,87.95
2022-10-11T23:20:27.298Z,88.06
2022-10-11T23:22:53.869Z,87.86
2022-10-11T23:25:20.489Z,88.14
2022-10-11T23:27:47.097Z,87.71
2022-10-11T23:30:13.922Z,87.76
2022-10-11T23:32:40.680Z,87.72
2022-10-11T23:35:07.781Z,87.67
2022-10-11T23:37:34.531Z,87.88
2022-10-11T23:40:01.287Z,88.00
2022-10-11T23:42:27.929Z,87.58
2022-10-11T23:44:54.516Z,87.29
2022-10-11T23:47:21.118Z,87.52
2022-10-11T23:49:47.751Z,87.97
2022-10-11T23:52:14.337Z,88.28
2022-10-11T23:54:41.064Z,88.19
2022-10-11T23:57:07.635Z,88.28
2022-10-11T23:59:34.218Z,88.33
